»·PEaware :: DAL1144 KSLC-KDEN

DAL1144 :: KSLC-KDEN

FLIGHT INFORMATION

Flight Status: Arrived
Operator:
Delta Air Lines
More flights by this operator :: More flights under this callsign
Pilot: Anonymous 12234 (12234)
Aircraft: BOEING 737-200
(B732)
More flights by this aircraft type
Origin: KSLC Salt Lake City Intl
United States
Destination: KDEN Denver Intl
United States
More flights between these airports :: More routes between these airports
Route: +SLC4 EVW OCS RAMMS6
File this flight plan on PilotEdge
Remarks:
Altitude:
(Current/Filed)
29,000ft
Speed:
(Current/Filed)
430kts
Departed: 21-Jan-18 01:49 PM
Arrived: 21-Jan-18 03:05 PM
Distance/Time
Traveled:
339nm/1:16
Distance/Time
To Go:
Arrived

Flight Plot

Page will automatically refresh every two minutes.

Flight plan parsing failed; only flown route is shown


Map Options




Map Legend


Flown Route
Filed Route
Departure Airport
Arrival Airport
Navaid (VOR, NDB)
Fix

Horizontal Profiles

Position Reports

Time Latitude Longitude Heading Altitude Ground
Speed
21-Jan-18 13:25 40.788107 -111.980993 284 4236ft 0kts
21-Jan-18 13:26 40.788107 -111.980993 284 4236ft 0kts
21-Jan-18 13:27 40.788107 -111.980993 284 4236ft 0kts
21-Jan-18 13:28 40.788107 -111.980993 284 4236ft 0kts
21-Jan-18 13:29 40.788107 -111.980993 284 4236ft 0kts
21-Jan-18 13:30 40.788107 -111.980993 284 4236ft 0kts
21-Jan-18 13:31 40.788107 -111.980993 284 4236ft 0kts
21-Jan-18 13:32 40.788107 -111.980993 284 4236ft 0kts
21-Jan-18 13:33 40.788107 -111.980993 284 4236ft 0kts
21-Jan-18 13:34 40.788107 -111.980993 284 4236ft 0kts
21-Jan-18 13:35 40.788107 -111.980993 284 4236ft 0kts
21-Jan-18 13:36 40.788107 -111.980993 284 4236ft 0kts
21-Jan-18 13:37 40.788107 -111.980993 284 4236ft 0kts
21-Jan-18 13:38 40.788107 -111.980993 284 4236ft 0kts
21-Jan-18 13:39 40.788107 -111.980993 284 4236ft 0kts
21-Jan-18 13:40 40.788107 -111.980993 284 4236ft 0kts
21-Jan-18 13:41 40.788107 -111.980993 284 4236ft 0kts
21-Jan-18 13:42 40.788108 -111.980998 284 4236ft 0kts
21-Jan-18 13:43 40.787989 -111.980406 299 4236ft 2kts
21-Jan-18 13:44 40.787663 -111.980256 19 4236ft 0kts
21-Jan-18 13:45 40.787663 -111.980255 19 4236ft 0kts
21-Jan-18 13:46 40.787663 -111.980255 19 4236ft 0kts
21-Jan-18 13:47 40.788425 -111.979914 15 4236ft 8kts
21-Jan-18 13:48 40.790479 -111.979423 358 4236ft 8kts
21-Jan-18 13:49 40.791286 -111.979520 356 4236ft 2kts
21-Jan-18 13:50 40.791370 -111.977250 174 4236ft 14kts
21-Jan-18 13:51 40.785629 -111.976577 175 4236ft 25kts
21-Jan-18 13:52 40.779169 -111.975622 154 4236ft 21kts
21-Jan-18 13:53 40.774489 -111.974252 84 4236ft 11kts
21-Jan-18 13:54 40.775491 -111.973227 356 4236ft 6kts
21-Jan-18 13:55 40.804128 -111.975647 356 5034ft 158kts
21-Jan-18 13:56 40.840587 -111.977597 354 6437ft 184kts
21-Jan-18 13:57 40.905545 -111.984473 354 7640ft 268kts
21-Jan-18 13:58 40.979909 -111.992585 354 10393ft 277kts
21-Jan-18 13:59 41.063048 -111.979725 43 13004ft 297kts
21-Jan-18 14:00 41.098306 -111.869645 68 13836ft 363kts
21-Jan-18 14:01 41.122446 -111.772706 73 15442ft 370kts
21-Jan-18 14:02 41.151609 -111.639952 79 17330ft 377kts
21-Jan-18 14:03 41.184285 -111.481926 77 18691ft 403kts
21-Jan-18 14:04 41.208643 -111.363270 79 20114ft 403kts
21-Jan-18 14:05 41.235764 -111.228293 80 21459ft 407kts
21-Jan-18 14:06 41.264370 -111.085426 77 22058ft 430kts
21-Jan-18 14:07 41.281494 -110.933080 86 23114ft 437kts
21-Jan-18 14:08 41.297269 -110.779268 71 24809ft 416kts
21-Jan-18 14:09 41.320314 -110.639012 70 26966ft 381kts
21-Jan-18 14:10 41.343750 -110.503376 70 27732ft 380kts
21-Jan-18 14:11 41.366643 -110.368986 70 28544ft 378kts
21-Jan-18 14:12 41.388674 -110.238228 71 29131ft 379kts
21-Jan-18 14:13 41.412074 -110.100716 71 29135ft 394kts
21-Jan-18 14:14 41.435963 -109.959358 72 29130ft 400kts
21-Jan-18 14:15 41.459816 -109.816940 72 29128ft 399kts
21-Jan-18 14:16 41.483349 -109.675024 72 29074ft 398kts
21-Jan-18 14:17 41.506742 -109.534022 72 29071ft 394kts
21-Jan-18 14:18 41.529627 -109.394567 72 29071ft 391kts
21-Jan-18 14:19 41.551204 -109.258631 74 29077ft 390kts
21-Jan-18 14:20 41.574680 -109.119141 74 29079ft 393kts
21-Jan-18 14:21 41.589188 -108.978262 104 29101ft 392kts
21-Jan-18 14:22 41.555951 -108.839985 112 29077ft 398kts
21-Jan-18 14:23 41.522211 -108.700019 107 29079ft 405kts
21-Jan-18 14:24 41.490990 -108.556569 108 29074ft 409kts
21-Jan-18 14:25 41.459175 -108.411447 108 29072ft 413kts
21-Jan-18 14:26 41.427753 -108.270489 108 29075ft 412kts
21-Jan-18 14:27 41.395676 -108.127005 107 29047ft 404kts
21-Jan-18 14:28 41.364574 -107.987895 107 29070ft 395kts
21-Jan-18 14:29 41.332994 -107.847170 107 29076ft 404kts
21-Jan-18 14:30 41.300890 -107.705624 107 29072ft 405kts
21-Jan-18 14:31 41.268672 -107.564433 107 29070ft 403kts
21-Jan-18 14:32 41.236373 -107.423672 107 29069ft 400kts
21-Jan-18 14:33 41.205139 -107.289118 108 29023ft 399kts
21-Jan-18 14:34 41.172950 -107.151189 108 29041ft 398kts
21-Jan-18 14:35 41.140457 -107.012060 108 29019ft 399kts
21-Jan-18 14:36 41.107939 -106.873591 107 29018ft 399kts
21-Jan-18 14:37 41.055744 -106.720725 114 29019ft 397kts
21-Jan-18 14:38 41.022785 -106.607872 109 29016ft 398kts
21-Jan-18 14:39 40.988228 -106.470867 108 28986ft 398kts
21-Jan-18 14:40 40.955255 -106.336056 108 28940ft 400kts
21-Jan-18 14:41 40.921109 -106.198097 108 28939ft 400kts
21-Jan-18 14:42 40.888162 -106.065918 109 28943ft 401kts
21-Jan-18 14:43 40.854638 -105.932397 108 28940ft 400kts
21-Jan-18 14:44 40.820894 -105.796809 106 27069ft 392kts
21-Jan-18 14:45 40.787709 -105.663325 105 24664ft 384kts
21-Jan-18 14:46 40.749494 -105.536268 127 22433ft 384kts
21-Jan-18 14:47 40.677225 -105.439463 134 19803ft 371kts
21-Jan-18 14:48 40.600809 -105.354214 137 17347ft 358kts
21-Jan-18 14:49 40.530553 -105.279705 138 17029ft 321kts
21-Jan-18 14:50 40.462010 -105.208509 138 16794ft 313kts
21-Jan-18 14:51 40.394600 -105.138404 138 15108ft 313kts
21-Jan-18 14:52 40.328014 -105.069333 137 13617ft 308kts
21-Jan-18 14:53 40.261740 -105.000599 139 12145ft 307kts
21-Jan-18 14:54 40.195621 -104.932327 140 11057ft 306kts
21-Jan-18 14:55 40.130439 -104.865385 140 11004ft 300kts
21-Jan-18 14:56 40.064194 -104.803006 165 11004ft 299kts
21-Jan-18 14:57 39.984261 -104.795127 177 10995ft 301kts
21-Jan-18 14:58 39.902594 -104.788802 177 10986ft 310kts
21-Jan-18 14:59 39.820599 -104.782548 177 10977ft 317kts
21-Jan-18 15:00 39.734986 -104.775771 177 10971ft 315kts
21-Jan-18 15:01 39.649789 -104.768910 177 10600ft 310kts
21-Jan-18 15:02 39.565735 -104.762494 177 9737ft 304kts
21-Jan-18 15:03 39.517547 -104.700035 73 9402ft 251kts
21-Jan-18 15:04 39.568067 -104.665369 1 8689ft 226kts
21-Jan-18 15:05 39.628865 -104.663288 358 8089ft 212kts
21-Jan-18 15:06 39.679798 -104.662492 357 7984ft 169kts
21-Jan-18 15:07 39.723390 -104.661933 357 7542ft 151kts
21-Jan-18 15:08 39.759262 -104.661419 356 6781ft 122kts
21-Jan-18 15:09 39.793644 -104.661013 356 6152ft 128kts
21-Jan-18 15:10 39.829474 -104.660379 356 5465ft 129kts
21-Jan-18 15:11 39.848101 -104.660814 339 5443ft 30kts
21-Jan-18 15:12 39.850704 -104.662267 355 5443ft 6kts
21-Jan-18 15:13 39.854349 -104.662242 359 5443ft 18kts
21-Jan-18 15:14 39.855875 -104.667831 272 5443ft 22kts
21-Jan-18 15:15 39.855336 -104.675733 217 5443ft 15kts
21-Jan-18 15:16 39.854417 -104.675889 166 5443ft 0kts
21-Jan-18 15:17 39.854417 -104.675889 166 5443ft 0kts
21-Jan-18 15:18 39.854417 -104.675889 166 5443ft 0kts
21-Jan-18 15:19 39.854417 -104.675889 166 5443ft 0kts
21-Jan-18 15:20 39.854417 -104.675889 166 5443ft 0kts
21-Jan-18 15:21 39.854417 -104.675889 166 5443ft 0kts
21-Jan-18 15:22 39.854417 -104.675889 166 5443ft 0kts
21-Jan-18 15:23 39.854417 -104.675889 166 5443ft 0kts
21-Jan-18 15:24 39.854417 -104.675889 166 5443ft 0kts
21-Jan-18 15:25 39.854417 -104.675889 166 5443ft 0kts
21-Jan-18 15:26 39.854417 -104.675889 166 5443ft 0kts

Navigation Log

Ident Type
Flight plan parsing failed, navigation log unavailable